Time;durP1;ratioP1;P1;durP2;ratioP2;P2;SDS_P1;SDS_P2;PMS_P1;PMS_P2;Temp;Humidity;BMP_temperature;BMP_pressure;BME280_temperature;BME280_humidity;BME280_pressure;Samples;Min_cycle;Max_cycle;Signal;HPM_P1;HPM_P2
2022/09/21 00:01:09;;;;;;;4.70;2.10;;;;;;;8.60;nan;101373.16;4968827;28;20035;-65
2022/09/21 00:03:35;;;;;;;3.85;2.40;;;;;;;8.59;nan;101368.03;4971706;28;20396;-65
2022/09/21 00:06:10;;;;;;;5.75;2.10;;;;;;;8.58;nan;101366.31;4969276;28;20037;-65
2022/09/21 00:08:36;;;;;;;4.85;2.60;;;;;;;8.59;nan;101368.84;4972754;28;20039;-65
2022/09/21 00:11:02;;;;;;;4.30;2.58;;;;;;;8.55;nan;101369.22;4969029;28;20535;-65
2022/09/21 00:13:28;;;;;;;4.40;2.40;;;;;;;8.52;nan;101372.09;4970952;28;20122;-65
2022/09/21 00:15:54;;;;;;;2.53;2.00;;;;;;;8.43;nan;101371.81;4973108;28;20141;-65
2022/09/21 00:18:20;;;;;;;2.67;1.75;;;;;;;8.35;nan;101371.53;4970806;28;20060;-66
2022/09/21 00:20:46;;;;;;;2.05;1.67;;;;;;;8.29;nan;101379.91;4971361;28;20031;-65
2022/09/21 00:23:11;;;;;;;2.05;1.63;;;;;;;8.19;nan;101377.13;4971651;28;20042;-65
2022/09/21 00:25:36;;;;;;;3.20;2.00;;;;;;;8.18;nan;101374.63;4972682;28;20035;-65
2022/09/21 00:28:02;;;;;;;2.80;1.73;;;;;;;8.15;nan;101373.06;4972227;28;20511;-65
2022/09/21 00:30:27;;;;;;;4.10;2.10;;;;;;;8.15;nan;101375.69;4972127;28;20027;-65
2022/09/21 00:32:53;;;;;;;4.22;2.10;;;;;;;8.12;nan;101373.28;4965151;28;20086;-65
2022/09/21 00:35:18;;;;;;;2.83;1.80;;;;;;;8.09;nan;101378.78;4972250;28;20026;-65
2022/09/21 00:37:44;;;;;;;3.35;1.90;;;;;;;8.07;nan;101378.06;4979154;28;20142;-65
2022/09/21 00:40:09;;;;;;;4.15;2.25;;;;;;;8.02;nan;101385.47;4971886;28;20130;-66
2022/09/21 00:42:35;;;;;;;2.58;1.92;;;;;;;7.97;nan;101380.53;4970160;28;20031;-66
2022/09/21 00:45:01;;;;;;;2.58;1.77;;;;;;;7.90;nan;101386.38;4970434;28;20035;-65
2022/09/21 00:47:41;;;;;;;2.33;1.67;;;;;;;7.82;nan;101379.88;4971385;28;20027;-65
2022/09/21 00:50:12;;;;;;;2.80;1.55;;;;;;;7.76;nan;101375.06;4970338;28;20126;-66
2022/09/21 00:52:49;;;;;;;3.75;2.22;;;;;;;7.78;nan;101377.59;4968338;28;20038;-65
2022/09/21 00:55:21;;;;;;;3.10;2.13;;;;;;;7.80;nan;101381.78;4972678;28;20447;-65
2022/09/21 00:57:54;;;;;;;3.17;2.20;;;;;;;7.77;nan;101376.75;4970627;28;20055;-65
2022/09/21 01:00:20;;;;;;;3.20;2.40;;;;;;;7.75;nan;101383.09;4965649;28;20035;-65
2022/09/21 01:02:46;;;;;;;3.83;2.40;;;;;;;7.74;nan;101382.22;4971213;28;20457;-65
2022/09/21 01:05:12;;;;;;;4.60;3.00;;;;;;;7.76;nan;101382.94;4970146;28;20388;-65
2022/09/21 01:07:43;;;;;;;7.05;3.05;;;;;;;7.79;nan;101385.34;4972182;28;20031;-65
2022/09/21 01:10:13;;;;;;;3.67;2.97;;;;;;;7.78;nan;101396.84;4964020;28;20034;-66
2022/09/21 01:12:57;;;;;;;4.60;2.70;;;;;;;7.74;nan;101389.28;4973322;28;20031;-65
2022/09/21 01:15:39;;;;;;;6.82;2.80;;;;;;;7.70;nan;101391.31;4978189;28;20800;-65
2022/09/21 01:18:27;;;;;;;5.82;2.83;;;;;;;7.68;nan;101387.94;4971542;28;20043;-66
2022/09/21 01:21:16;;;;;;;9.65;3.88;;;;;;;7.66;nan;101389.84;4968718;28;20046;-65
2022/09/21 01:24:15;;;;;;;9.35;3.40;;;;;;;7.63;nan;101385.66;4972335;28;20049;-65
2022/09/21 01:26:59;;;;;;;4.47;2.38;;;;;;;7.67;nan;101391.50;4971560;28;20499;-65
2022/09/21 01:29:32;;;;;;;4.50;2.60;;;;;;;7.67;nan;101386.25;4970740;28;20495;-65
2022/09/21 01:32:05;;;;;;;4.45;2.83;;;;;;;7.70;nan;101391.31;4971495;28;20039;-65
2022/09/21 01:34:48;;;;;;;3.60;2.50;;;;;;;7.68;nan;101387.94;4969516;28;20031;-66
2022/09/21 01:37:23;;;;;;;7.05;3.50;;;;;;;7.67;nan;101388.88;4971425;28;20037;-65
2022/09/21 01:39:54;;;;;;;18.42;6.50;;;;;;;7.68;nan;101387.13;4970693;28;20118;-66
2022/09/21 01:42:21;;;;;;;33.40;10.25;;;;;;;7.66;nan;101385.41;4970896;28;20031;-65
2022/09/21 01:44:48;;;;;;;36.53;10.40;;;;;;;7.61;nan;101394.59;4969883;28;20407;-65
2022/09/21 01:47:16;;;;;;;29.55;9.68;;;;;;;7.61;nan;101384.09;4971503;28;20073;-65
2022/09/21 01:49:46;;;;;;;26.42;8.60;;;;;;;7.59;nan;101383.34;4970788;28;20691;-65
2022/09/21 01:52:27;;;;;;;36.67;11.27;;;;;;;7.55;nan;101387.97;4970599;28;20205;-66
2022/09/21 01:54:59;;;;;;;29.45;9.35;;;;;;;7.52;nan;101397.91;4963486;28;20102;-65
2022/09/21 01:57:43;;;;;;;13.55;5.03;;;;;;;7.45;nan;101392.22;4971412;28;20026;-65
2022/09/21 02:00:09;;;;;;;5.88;3.08;;;;;;;7.39;nan;101388.25;4968714;28;20104;-66
2022/09/21 02:02:35;;;;;;;4.07;2.60;;;;;;;7.31;nan;101385.31;4969567;28;20536;-65
2022/09/21 02:05:01;;;;;;;4.18;2.00;;;;;;;7.25;nan;101388.41;4968681;28;20049;-65
2022/09/21 02:07:26;;;;;;;2.85;1.90;;;;;;;7.18;nan;101388.00;4971070;28;20035;-65
2022/09/21 02:09:53;;;;;;;3.20;1.65;;;;;;;7.12;nan;101391.03;4970165;28;20324;-66
2022/09/21 02:12:19;;;;;;;3.08;1.90;;;;;;;7.07;nan;101385.28;4971156;28;20035;-65
2022/09/21 02:14:44;;;;;;;2.33;1.50;;;;;;;7.04;nan;101390.75;4968094;28;20104;-65
2022/09/21 02:17:27;;;;;;;3.90;2.03;;;;;;;6.97;nan;101384.25;4970592;28;20356;-65
2022/09/21 02:20:06;;;;;;;4.00;2.00;;;;;;;6.89;nan;101387.41;4968320;28;20372;-65
2022/09/21 02:22:43;;;;;;;2.40;1.88;;;;;;;6.81;nan;101389.72;4967787;28;20050;-65
2022/09/21 02:25:14;;;;;;;3.30;2.30;;;;;;;6.75;nan;101398.03;4970784;28;20077;-65
2022/09/21 02:27:52;;;;;;;;;;;;;;;6.69;nan;101393.19;4971173;28;20039;-65
2022/09/21 02:30:26;;;;;;;2.58;1.67;;;;;;;6.64;nan;101395.31;4971238;28;19984;-65
2022/09/21 02:33:12;;;;;;;2.47;1.95;;;;;;;6.62;nan;101395.41;4973658;28;20046;-65
2022/09/21 02:35:47;;;;;;;2.60;1.58;;;;;;;6.59;nan;101391.19;4969571;28;20101;-66
2022/09/21 02:38:34;;;;;;;2.00;1.50;;;;;;;6.56;nan;101391.41;4970150;28;20038;-65
2022/09/21 02:41:14;;;;;;;5.13;2.40;;;;;;;6.50;nan;101388.34;4973939;28;20033;-65
2022/09/21 02:43:58;;;;;;;3.08;2.10;;;;;;;6.46;nan;101387.75;4970360;28;20419;-65
2022/09/21 02:46:42;;;;;;;4.95;2.38;;;;;;;6.41;nan;101389.81;4970153;28;20153;-65
2022/09/21 02:49:15;;;;;;;3.38;2.00;;;;;;;6.39;nan;101396.97;4970191;28;20400;-65
2022/09/21 02:51:50;;;;;;;2.92;2.20;;;;;;;6.36;nan;101390.16;4973657;28;20039;-65
2022/09/21 02:54:19;;;;;;;4.57;2.20;;;;;;;6.36;nan;101390.16;4969814;28;20031;-66
2022/09/21 02:56:47;;;;;;;4.22;2.70;;;;;;;6.47;nan;101388.56;4974656;28;20452;-65
2022/09/21 02:59:15;;;;;;;4.60;2.38;;;;;;;6.55;nan;101387.13;4969739;28;20035;-65
2022/09/21 03:01:41;;;;;;;4.00;2.10;;;;;;;6.57;nan;101382.56;4973650;28;20431;-65
2022/09/21 03:04:07;;;;;;;5.40;2.42;;;;;;;6.58;nan;101378.19;4971164;28;20023;-65
2022/09/21 03:06:32;;;;;;;3.33;2.20;;;;;;;6.54;nan;101380.16;4968750;28;20612;-65
2022/09/21 03:08:58;;;;;;;2.40;1.80;;;;;;;6.54;nan;101381.94;4971843;28;20054;-66
2022/09/21 03:11:24;;;;;;;4.22;2.00;;;;;;;6.48;nan;101383.19;4969685;28;20125;-65
2022/09/21 03:13:49;;;;;;;2.45;1.92;;;;;;;6.41;nan;101375.84;4969918;28;20500;-65
2022/09/21 03:16:15;;;;;;;3.17;2.05;;;;;;;6.37;nan;101383.09;4969215;28;20038;-65
2022/09/21 03:18:42;;;;;;;3.65;2.53;;;;;;;6.42;nan;101375.75;4970589;28;20166;-65
2022/09/21 03:21:08;;;;;;;3.33;2.22;;;;;;;6.49;nan;101382.25;4969930;28;20035;-65
2022/09/21 03:23:33;;;;;;;3.95;2.53;;;;;;;6.57;nan;101385.19;4970646;28;20635;-66
2022/09/21 03:25:58;;;;;;;4.57;2.42;;;;;;;6.63;nan;101385.75;4968241;28;20042;-65
2022/09/21 03:28:24;;;;;;;5.18;2.95;;;;;;;6.69;nan;101393.19;4968499;28;20101;-65
2022/09/21 03:30:50;;;;;;;6.18;3.00;;;;;;;6.70;nan;101397.53;4969471;28;20039;-65
2022/09/21 03:33:18;;;;;;;3.72;2.53;;;;;;;6.69;nan;101396.66;4967444;28;20050;-65
2022/09/21 03:35:44;;;;;;;4.05;2.47;;;;;;;6.65;nan;101396.97;4960714;28;20035;-65
2022/09/21 03:38:10;;;;;;;3.58;2.17;;;;;;;6.56;nan;101404.53;4967212;28;20117;-66
2022/09/21 03:40:35;;;;;;;3.10;2.00;;;;;;;6.48;nan;101403.38;4969370;28;20035;-65
2022/09/21 03:43:01;;;;;;;2.30;1.80;;;;;;;6.45;nan;101408.84;4968557;28;20035;-65
2022/09/21 03:45:26;;;;;;;2.75;2.13;;;;;;;6.47;nan;101399.91;4969238;28;20035;-65
2022/09/21 03:47:57;;;;;;;3.45;2.40;;;;;;;6.48;nan;101412.09;4967273;28;20054;-65
2022/09/21 03:50:23;;;;;;;6.68;3.03;;;;;;;6.53;nan;101409.16;4968856;28;20039;-65
2022/09/21 03:52:49;;;;;;;3.92;2.70;;;;;;;6.56;nan;101408.97;4975456;28;20526;-65
2022/09/21 03:55:14;;;;;;;4.13;2.85;;;;;;;6.61;nan;101408.66;4961302;28;20160;-65
2022/09/21 03:57:39;;;;;;;4.32;2.80;;;;;;;6.64;nan;101411.06;4968936;28;20035;-65
2022/09/21 04:00:08;;;;;;;4.68;2.67;;;;;;;6.67;nan;101403.81;4966736;28;20027;-65
2022/09/21 04:02:34;;;;;;;3.45;2.47;;;;;;;6.67;nan;101413.47;4969042;28;20039;-65
2022/09/21 04:04:59;;;;;;;5.03;2.53;;;;;;;6.66;nan;101409.19;4968405;28;20069;-66
2022/09/21 04:07:25;;;;;;;4.43;2.60;;;;;;;6.65;nan;101408.34;4969186;28;20544;-65
2022/09/21 04:09:50;;;;;;;3.65;2.63;;;;;;;6.61;nan;101409.50;4963130;28;20086;-65
2022/09/21 04:12:16;;;;;;;3.42;2.42;;;;;;;6.61;nan;101404.25;4968217;28;20031;-65
2022/09/21 04:14:41;;;;;;;4.75;2.33;;;;;;;6.58;nan;101401.81;4967421;28;20310;-65
2022/09/21 04:17:06;;;;;;;7.30;2.50;;;;;;;6.58;nan;101407.09;4969106;28;20478;-65
2022/09/21 04:19:32;;;;;;;3.72;2.30;;;;;;;6.55;nan;101407.28;4967526;28;20282;-65
2022/09/21 04:21:57;;;;;;;4.50;2.93;;;;;;;6.52;nan;101408.31;4968870;28;20393;-65
2022/09/21 04:24:23;;;;;;;5.30;3.30;;;;;;;6.48;nan;101401.59;4968159;28;20279;-66
2022/09/21 04:26:48;;;;;;;5.60;2.78;;;;;;;6.45;nan;101407.06;4968489;28;20440;-65
2022/09/21 04:29:15;;;;;;;4.53;2.83;;;;;;;6.42;nan;101407.28;4968714;28;20044;-65
2022/09/21 04:31:40;;;;;;;4.32;2.63;;;;;;;6.43;nan;101413.34;4969086;28;20399;-65
2022/09/21 04:34:07;;;;;;;6.45;2.75;;;;;;;6.40;nan;101400.44;4967954;28;20043;-65
2022/09/21 04:36:33;;;;;;;4.93;2.47;;;;;;;6.38;nan;101408.41;4969208;28;20034;-65
2022/09/21 04:39:01;;;;;;;3.90;2.60;;;;;;;6.36;nan;101408.53;4967683;28;20039;-65
2022/09/21 04:41:26;;;;;;;4.82;2.72;;;;;;;6.30;nan;101408.94;4974207;28;20034;-65
2022/09/21 04:43:52;;;;;;;4.18;2.60;;;;;;;6.29;nan;101414.28;4968846;28;20066;-65
2022/09/21 04:46:19;;;;;;;4.00;2.70;;;;;;;6.32;nan;101414.94;4974337;28;20035;-65
2022/09/21 04:48:45;;;;;;;4.70;2.92;;;;;;;6.27;nan;101416.16;4968677;28;20135;-65
2022/09/21 04:51:11;;;;;;;5.38;2.70;;;;;;;6.27;nan;101424.91;4968472;28;20031;-65
2022/09/21 04:53:38;;;;;;;5.18;3.10;;;;;;;6.35;nan;101432.25;4968888;28;20065;-65
2022/09/21 04:56:05;;;;;;;7.05;3.28;;;;;;;6.47;nan;101425.34;4969680;28;20418;-65
2022/09/21 04:58:30;;;;;;;5.57;2.92;;;;;;;6.50;nan;101425.97;4968479;28;20038;-66
2022/09/21 05:00:56;;;;;;;4.55;2.80;;;;;;;6.51;nan;101417.16;4971265;28;20053;-65
2022/09/21 05:03:22;;;;;;;5.45;2.92;;;;;;;6.53;nan;101428.41;4971331;28;20068;-66
2022/09/21 05:05:49;;;;;;;5.53;3.05;;;;;;;6.58;nan;101428.94;4974006;28;20039;-65
2022/09/21 05:08:15;;;;;;;4.63;2.63;;;;;;;6.54;nan;101437.97;4972997;28;20125;-65
2022/09/21 05:10:42;;;;;;;4.28;2.70;;;;;;;6.54;nan;101437.97;4976788;28;20101;-65
2022/09/21 05:13:07;;;;;;;5.85;3.25;;;;;;;6.55;nan;101438.81;4972336;28;20155;-65
2022/09/21 05:15:33;;;;;;;5.60;3.38;;;;;;;6.53;nan;101452.06;4972797;28;20045;-65
2022/09/21 05:17:58;;;;;;;4.65;2.75;;;;;;;6.49;nan;101442.69;4971943;28;20412;-65
2022/09/21 05:20:23;;;;;;;3.97;2.70;;;;;;;6.50;nan;101451.41;4971737;28;20041;-66
2022/09/21 05:22:49;;;;;;;4.60;2.47;;;;;;;6.52;nan;101450.38;4972006;28;20647;-65
2022/09/21 05:25:14;;;;;;;5.65;2.78;;;;;;;6.59;nan;101458.69;4972888;28;20126;-65
2022/09/21 05:27:40;;;;;;;5.13;2.92;;;;;;;6.66;nan;101452.06;4972342;28;20047;-65
2022/09/21 05:30:06;;;;;;;3.85;2.78;;;;;;;6.72;nan;101462.19;4971511;28;20043;-65
2022/09/21 05:32:55;;;;;;;3.95;2.55;;;;;;;6.75;nan;101458.50;4972077;28;20142;-65
2022/09/21 05:35:32;;;;;;;5.00;2.70;;;;;;;6.78;nan;101460.91;4971497;28;20154;-65
2022/09/21 05:38:18;;;;;;;5.03;3.05;;;;;;;6.85;nan;101459.53;4969567;28;20035;-65
2022/09/21 05:40:46;;;;;;;4.65;2.88;;;;;;;6.87;nan;101456.81;4969699;28;20574;-66
2022/09/21 05:43:12;;;;;;;7.20;3.40;;;;;;;6.86;nan;101463.00;4971740;28;20031;-65
2022/09/21 05:45:45;;;;;;;3.17;2.40;;;;;;;6.84;nan;101465.75;4971123;28;20022;-65
2022/09/21 05:48:16;;;;;;;3.47;2.75;;;;;;;6.81;nan;101460.69;4970949;28;20045;-65
2022/09/21 05:50:47;;;;;;;;;;;;;;;6.79;nan;101473.09;4971602;28;20043;-65
2022/09/21 05:53:27;;;;;;;9.10;3.67;;;;;;;6.91;nan;101468.78;4963207;28;20459;-65
2022/09/21 05:56:05;;;;;;;6.30;3.88;;;;;;;7.12;nan;101474.38;4970655;28;20046;-65
2022/09/21 05:59:02;;;;;;;5.88;3.38;;;;;;;7.50;nan;101470.84;4970983;28;20154;-66
2022/09/21 06:01:57;;;;;;;4.43;3.10;;;;;;;7.97;nan;101477.97;4962307;28;20579;-65
2022/09/21 06:04:22;;;;;;;5.55;3.03;;;;;;;8.46;nan;101473.53;4962343;28;20546;-66
2022/09/21 06:06:48;;;;;;;3.67;2.50;;;;;;;8.84;nan;101475.94;4970328;28;20074;-66
2022/09/21 06:09:13;;;;;;;4.70;2.58;;;;;;;9.20;nan;101479.34;4970637;28;20031;-66
2022/09/21 06:11:39;;;;;;;4.10;2.33;;;;;;;9.48;nan;101471.88;4966826;28;20518;-66
2022/09/21 06:14:04;;;;;;;4.18;2.20;;;;;;;9.68;nan;101481.72;4969119;28;20320;-67
2022/09/21 06:16:40;;;;;;;4.40;2.22;;;;;;;9.83;nan;101479.63;4970440;28;20038;-66
2022/09/21 06:19:05;;;;;;;3.45;2.20;;;;;;;10.09;nan;101488.09;4971628;28;20039;-66
2022/09/21 06:21:31;;;;;;;4.28;2.40;;;;;;;10.24;nan;101490.44;4970401;28;20042;-66
2022/09/21 06:23:56;;;;;;;2.63;1.85;;;;;;;10.48;nan;101485.78;4968882;28;20125;-66
2022/09/21 06:26:21;;;;;;;3.28;2.15;;;;;;;10.83;nan;101489.94;4969126;28;20082;-66
2022/09/21 06:28:46;;;;;;;4.03;1.80;;;;;;;11.20;nan;101492.09;4970351;28;20134;-66
2022/09/21 06:31:12;;;;;;;2.83;1.67;;;;;;;11.66;nan;101488.94;4970596;28;20286;-66
2022/09/21 06:33:37;;;;;;;2.88;1.65;;;;;;;12.05;nan;101490.84;4969628;28;20042;-67
2022/09/21 06:36:03;;;;;;;2.70;1.42;;;;;;;12.34;nan;101490.84;4970234;28;20031;-66
2022/09/21 06:38:28;;;;;;;2.78;1.30;;;;;;;12.54;nan;101486.41;4969415;28;20042;-66
2022/09/21 06:40:54;;;;;;;3.22;1.52;;;;;;;12.61;nan;101491.97;4970219;28;20047;-66
2022/09/21 06:43:19;;;;;;;2.40;1.05;;;;;;;12.72;nan;101505.09;4968824;28;20035;-66
2022/09/21 06:45:55;;;;;;;3.30;2.00;;;;;;;12.59;nan;101493.94;4970482;28;20041;-66
2022/09/21 06:48:21;;;;;;;4.82;2.10;;;;;;;12.30;nan;101502.75;4969150;28;20484;-67
2022/09/21 06:50:47;;;;;;;4.25;2.00;;;;;;;11.93;nan;101497.25;4970475;28;20045;-66
2022/09/21 06:53:13;;;;;;;3.42;1.92;;;;;;;11.80;nan;101502.78;4955198;28;20038;-66
2022/09/21 06:55:38;;;;;;;2.58;1.73;;;;;;;12.01;nan;101505.34;4970164;28;20520;-66
2022/09/21 06:58:04;;;;;;;3.03;1.35;;;;;;;12.33;nan;101497.16;4951555;28;20129;-67
2022/09/21 07:00:30;;;;;;;4.43;1.80;;;;;;;12.72;nan;101502.44;4966177;28;20030;-67
2022/09/21 07:02:55;;;;;;;3.92;1.55;;;;;;;13.03;nan;101503.06;4968388;28;20496;-66
2022/09/21 07:05:21;;;;;;;3.50;1.45;;;;;;;13.45;nan;101507.16;4968686;28;20038;-66
2022/09/21 07:07:46;;;;;;;2.45;1.23;;;;;;;13.79;nan;101510.06;4969287;28;20130;-66
2022/09/21 07:10:11;;;;;;;2.00;1.30;;;;;;;14.16;nan;101504.66;4968679;28;20461;-67
2022/09/21 07:12:37;;;;;;;2.00;1.08;;;;;;;14.65;nan;101504.25;4968714;28;20425;-67
2022/09/21 07:15:04;;;;;;;1.65;0.93;;;;;;;15.16;nan;101510.63;4968764;28;20129;-67
2022/09/21 07:17:37;;;;;;;1.98;1.13;;;;;;;15.58;nan;101503.66;4969836;28;20030;-66
2022/09/21 07:20:04;;;;;;;1.83;0.85;;;;;;;15.91;nan;101502.78;4969150;28;20046;-67
2022/09/21 07:22:31;;;;;;;1.55;0.80;;;;;;;16.33;nan;101507.22;4968635;28;20085;-67
2022/09/21 07:24:56;;;;;;;1.95;0.93;;;;;;;16.67;nan;101516.06;4969547;28;20035;-67
2022/09/21 07:27:24;;;;;;;3.25;1.10;;;;;;;16.83;nan;101508.06;4969598;28;20591;-67
2022/09/21 07:29:49;;;;;;;2.17;1.30;;;;;;;17.00;nan;101500.84;4975170;28;20043;-67
2022/09/21 07:32:14;;;;;;;3.85;1.48;;;;;;;16.95;nan;101513.91;4961089;28;20486;-67
2022/09/21 07:34:39;;;;;;;2.10;1.35;;;;;;;17.17;nan;101512.34;4969928;28;20046;-67
2022/09/21 07:37:05;;;;;;;1.95;1.23;;;;;;;17.43;nan;101506.75;4969247;28;20031;-67
2022/09/21 07:39:30;;;;;;;2.17;1.03;;;;;;;17.73;nan;101512.28;4969235;28;20181;-64
2022/09/21 07:41:59;;;;;;;3.58;1.27;;;;;;;17.99;nan;101510.16;4969164;28;20828;-64
2022/09/21 07:44:24;;;;;;;3.03;1.60;;;;;;;18.16;nan;101513.59;4970284;28;20439;-67
2022/09/21 07:46:50;;;;;;;1.65;1.13;;;;;;;18.44;nan;101513.88;4969323;28;20031;-67
2022/09/21 07:49:15;;;;;;;1.80;0.98;;;;;;;18.68;nan;101518.19;4970776;28;20401;-65
2022/09/21 07:51:40;;;;;;;2.60;1.30;;;;;;;18.97;nan;101515.78;4969375;28;20034;-66
2022/09/21 07:54:09;;;;;;;3.03;1.70;;;;;;;19.27;nan;101512.13;4969459;28;20145;-66
2022/09/21 07:56:36;;;;;;;2.35;1.23;;;;;;;19.53;nan;101514.31;4974733;28;20059;-66
2022/09/21 07:59:04;;;;;;;2.42;1.20;;;;;;;19.89;nan;101510.03;4965732;28;20041;-66
2022/09/21 08:01:32;;;;;;;2.80;1.55;;;;;;;20.26;nan;101506.31;4968762;28;20053;-66
2022/09/21 08:03:58;;;;;;;3.38;1.85;;;;;;;19.98;nan;101506.22;4969355;28;20174;-66
2022/09/21 08:06:25;;;;;;;3.42;1.65;;;;;;;19.81;nan;101511.00;4967404;28;20070;-66
2022/09/21 08:08:51;;;;;;;2.30;1.30;;;;;;;20.34;nan;101508.03;4968779;28;20031;-66
2022/09/21 08:11:21;;;;;;;1.92;1.10;;;;;;;20.82;nan;101507.44;4968688;28;20519;-66
2022/09/21 08:13:47;;;;;;;2.80;1.60;;;;;;;21.00;nan;101511.28;4967490;28;20122;-65
2022/09/21 08:16:12;;;;;;;3.35;2.05;;;;;;;20.89;nan;101511.00;4966702;28;20133;-67
2022/09/21 08:18:40;;;;;;;4.70;1.77;;;;;;;21.02;nan;101513.75;4969002;28;20122;-66
2022/09/21 08:21:08;;;;;;;3.35;1.65;;;;;;;21.16;nan;101509.31;4967611;28;20039;-66
2022/09/21 08:23:34;;;;;;;3.33;1.60;;;;;;;21.35;nan;101511.28;4968927;28;20034;-66
2022/09/21 08:26:07;;;;;;;2.17;1.38;;;;;;;21.53;nan;101515.34;4964633;28;20040;-66
2022/09/21 08:28:35;;;;;;;2.45;1.45;;;;;;;21.50;nan;101513.03;4968387;28;20093;-66
2022/09/21 08:31:04;;;;;;;3.83;1.40;;;;;;;21.79;nan;101511.94;4967210;28;20522;-65
2022/09/21 08:33:31;;;;;;;2.60;1.50;;;;;;;22.01;nan;101509.91;4969011;28;20519;-66
2022/09/21 08:35:58;;;;;;;3.63;1.30;;;;;;;22.25;nan;101508.53;4965218;28;20035;-66
2022/09/21 08:38:24;;;;;;;3.05;1.20;;;;;;;22.53;nan;101518.31;4972511;28;20476;-65
2022/09/21 08:40:51;;;;;;;2.72;1.30;;;;;;;23.04;nan;101513.09;4968969;28;20031;-66
2022/09/21 08:43:35;;;;;;;2.22;1.30;;;;;;;23.67;nan;101525.19;4972795;28;20159;-66
2022/09/21 08:46:05;;;;;;;3.03;1.40;;;;;;;23.77;nan;101517.47;4971099;28;20039;-66
2022/09/21 08:48:36;;;;;;;5.72;2.15;;;;;;;23.71;nan;101510.19;4972205;28;20328;-66
2022/09/21 08:51:07;;;;;;;1.60;1.20;;;;;;;23.32;nan;101509.31;4972001;28;20042;-66
2022/09/21 08:53:35;;;;;;;;;;;;;;;23.31;nan;101511.19;4972706;28;20038;-66
2022/09/21 08:56:01;;;;;;;2.60;1.30;;;;;;;23.99;nan;101509.88;4971824;28;19918;-66
2022/09/21 08:58:29;;;;;;;1.90;1.02;;;;;;;24.42;nan;101503.75;4972038;28;20050;-66
2022/09/21 09:01:22;;;;;;;1.92;1.10;;;;;;;24.58;nan;101500.53;4967798;28;20035;-66
2022/09/21 09:04:05;;;;;;;2.03;1.23;;;;;;;24.99;nan;101503.69;4968495;28;20050;-66
2022/09/21 09:06:42;;;;;;;1.85;1.05;;;;;;;25.93;nan;101493.44;4968765;28;20035;-66
2022/09/21 09:09:33;;;;;;;2.25;1.30;;;;;;;26.13;nan;101492.34;4973778;28;20035;-66
2022/09/21 09:12:20;;;;;;;2.65;1.40;;;;;;;26.01;nan;101497.72;4973088;28;20141;-66
2022/09/21 09:15:02;;;;;;;2.00;1.10;;;;;;;26.01;nan;101495.84;4972083;28;20039;-66
2022/09/21 09:17:51;;;;;;;2.00;1.02;;;;;;;26.20;nan;101487.63;4975691;28;20030;-66
2022/09/21 09:20:44;;;;;;;2.08;1.30;;;;;;;26.78;nan;101484.16;4971204;28;20035;-66
2022/09/21 09:23:22;;;;;;;1.90;1.10;;;;;;;27.12;nan;101489.78;4970117;28;20038;-66
2022/09/21 09:25:51;;;;;;;3.33;1.27;;;;;;;27.74;nan;101490.03;4976008;28;20069;-66
2022/09/21 09:28:34;;;;;;;2.38;1.23;;;;;;;28.06;nan;101486.81;4972673;28;20026;-66
2022/09/21 09:31:05;;;;;;;2.00;1.05;;;;;;;28.02;nan;101484.81;4971864;28;20381;-66
2022/09/21 09:33:48;;;;;;;1.80;1.02;;;;;;;28.78;nan;101477.91;4971957;28;20126;-66
2022/09/21 09:36:13;;;;;;;2.10;0.90;;;;;;;29.49;nan;101477.22;4971135;28;20043;-67
2022/09/21 09:38:54;;;;;;;4.25;1.13;;;;;;;29.34;nan;101482.47;4977019;28;20042;-66
2022/09/21 09:41:35;;;;;;;;;;;;;;;28.83;nan;101477.16;4971764;28;20065;-66
2022/09/21 09:44:30;;;;;;;2.88;1.20;;;;;;;28.80;nan;101475.75;4971980;28;19931;-66
2022/09/21 09:47:09;;;;;;;1.88;0.90;;;;;;;29.55;nan;101461.72;4929981;28;20054;-66
2022/09/21 09:49:57;;;;;;;2.28;1.05;;;;;;;29.88;nan;101468.09;4977500;28;20034;-66
2022/09/21 09:52:23;;;;;;;3.30;1.10;;;;;;;30.21;nan;101464.28;4963983;28;20043;-67
2022/09/21 09:54:48;;;;;;;3.13;1.00;;;;;;;30.06;nan;101462.28;4975483;28;20043;-66
2022/09/21 09:57:18;;;;;;;1.63;0.80;;;;;;;29.78;nan;101461.47;4971349;28;20027;-66
2022/09/21 09:59:48;;;;;;;0.93;0.70;;;;;;;29.75;nan;101458.44;4971776;28;20058;-66
2022/09/21 10:02:20;;;;;;;2.00;0.95;;;;;;;29.49;nan;101454.59;4970487;28;20275;-67
2022/09/21 10:05:05;;;;;;;3.15;1.00;;;;;;;29.57;nan;101451.41;4966310;28;20039;-66
2022/09/21 10:07:40;;;;;;;1.55;0.88;;;;;;;29.60;nan;101454.44;4965897;28;20519;-66
2022/09/21 10:10:21;;;;;;;2.30;0.80;;;;;;;30.10;nan;101444.28;4969459;28;20054;-66
2022/09/21 10:12:48;;;;;;;1.67;0.88;;;;;;;30.56;nan;101450.13;4973870;28;20524;-66
2022/09/21 10:15:16;;;;;;;1.98;0.80;;;;;;;30.76;nan;101445.84;4970529;28;20050;-66
2022/09/21 10:17:44;;;;;;;2.28;0.95;;;;;;;31.15;nan;101435.41;4971072;28;20515;-66
2022/09/21 10:20:16;;;;;;;3.65;1.10;;;;;;;31.49;nan;101437.75;4963236;28;20046;-66
2022/09/21 10:22:47;;;;;;;2.63;0.70;;;;;;;32.53;nan;101437.50;4970900;28;20404;-66
2022/09/21 10:25:16;;;;;;;2.20;1.20;;;;;;;33.29;nan;101438.34;4970361;28;20037;-66
2022/09/21 10:27:45;;;;;;;3.17;0.80;;;;;;;33.61;nan;101433.25;4970884;28;20094;-66
2022/09/21 10:30:29;;;;;;;2.28;0.82;;;;;;;34.03;nan;101433.72;4968500;28;20046;-66
2022/09/21 10:32:56;;;;;;;3.10;0.90;;;;;;;33.96;nan;101434.06;4970334;28;20508;-66
2022/09/21 10:35:22;;;;;;;1.02;0.55;;;;;;;34.40;nan;101430.38;4970313;28;20554;-66
2022/09/21 10:37:52;;;;;;;2.38;0.98;;;;;;;34.36;nan;101436.75;4970463;28;20034;-66
2022/09/21 10:40:20;;;;;;;2.25;0.93;;;;;;;33.88;nan;101428.38;4965700;28;20332;-67
2022/09/21 10:42:49;;;;;;;2.45;0.90;;;;;;;33.49;nan;101424.53;4970529;28;20046;-66
2022/09/21 10:45:17;;;;;;;1.40;0.50;;;;;;;33.97;nan;101423.91;4967915;28;20030;-67
2022/09/21 10:47:46;;;;;;;1.38;0.70;;;;;;;34.28;nan;101427.22;4970285;28;20039;-66
2022/09/21 10:50:23;;;;;;;0.98;0.65;;;;;;;34.85;nan;101414.53;4968303;28;20039;-66
2022/09/21 10:52:50;;;;;;;0.82;0.50;;;;;;;35.80;nan;101424.75;4969640;28;20335;-67
2022/09/21 10:55:18;;;;;;;1.48;0.70;;;;;;;35.29;nan;101421.63;4962772;28;20046;-67
2022/09/21 10:57:44;;;;;;;1.48;0.50;;;;;;;34.24;nan;101418.72;4969969;28;20456;-66
2022/09/21 11:00:28;;;;;;;2.22;0.60;;;;;;;33.31;nan;101405.97;4967898;28;20403;-67
2022/09/21 11:02:54;;;;;;;0.80;0.55;;;;;;;30.61;nan;101408.38;4968132;28;20045;-66
2022/09/21 11:05:27;;;;;;;2.28;0.68;;;;;;;28.08;nan;101404.97;4971194;28;20634;-66
2022/09/21 11:08:05;;;;;;;1.15;0.60;;;;;;;26.30;nan;101403.81;4973004;28;20430;-66
2022/09/21 11:10:58;;;;;;;2.30;0.70;;;;;;;25.67;nan;101405.22;4967389;28;20126;-66
2022/09/21 11:13:24;;;;;;;1.85;0.73;;;;;;;28.35;nan;101407.84;4962982;28;20058;-66
2022/09/21 11:16:13;;;;;;;1.90;0.70;;;;;;;30.54;nan;101408.63;4963706;28;20045;-66
2022/09/21 11:18:44;;;;;;;1.75;0.60;;;;;;;32.46;nan;101401.34;4964880;28;20054;-66
2022/09/21 11:21:26;;;;;;;1.63;0.60;;;;;;;33.58;nan;101408.28;4969507;28;20041;-66
2022/09/21 11:24:03;;;;;;;2.08;0.68;;;;;;;32.35;nan;101406.84;4973962;28;20038;-66
2022/09/21 11:26:43;;;;;;;1.85;0.80;;;;;;;31.01;nan;101410.50;4966114;28;20052;-66
2022/09/21 11:29:11;;;;;;;1.25;0.60;;;;;;;31.60;nan;101405.75;4969560;28;20106;-66
2022/09/21 11:31:47;;;;;;;1.58;0.60;;;;;;;33.08;nan;101402.81;4967812;28;20050;-66
2022/09/21 11:34:38;;;;;;;1.17;0.50;;;;;;;34.21;nan;101388.31;4967776;28;20035;-67
2022/09/21 11:37:15;;;;;;;1.92;0.80;;;;;;;31.64;nan;101396.75;4968317;28;20070;-67
2022/09/21 11:40:09;;;;;;;1.85;0.80;;;;;;;30.03;nan;101389.13;4969609;28;20134;-67
2022/09/21 11:42:55;;;;;;;2.42;0.70;;;;;;;28.59;nan;101382.09;4961952;28;20632;-66
2022/09/21 11:45:41;;;;;;;1.50;0.50;;;;;;;27.41;nan;101378.50;4966799;28;20031;-66
2022/09/21 11:48:41;;;;;;;2.03;0.80;;;;;;;25.83;nan;101376.63;4968404;28;20043;-67
2022/09/21 11:51:37;;;;;;;1.15;0.57;;;;;;;24.72;nan;101374.13;4925160;28;20042;-66
2022/09/21 11:54:31;;;;;;;1.52;0.70;;;;;;;23.74;nan;101372.09;4967378;28;20047;-67
2022/09/21 11:57:10;;;;;;;1.75;0.57;;;;;;;23.24;nan;101358.41;4956481;28;20062;-66
2022/09/21 11:59:41;;;;;;;1.38;0.70;;;;;;;22.62;nan;101363.38;4966624;28;20667;-66
2022/09/21 12:02:31;;;;;;;1.63;0.70;;;;;;;22.42;nan;101358.06;4965880;28;20038;-67
2022/09/21 12:05:11;;;;;;;0.75;0.47;;;;;;;22.48;nan;101358.03;4966554;28;20373;-66